Time;durP1;ratioP1;P1;durP2;ratioP2;P2;SDS_P1;SDS_P2;PMS_P1;PMS_P2;Temp;Humidity;BMP_temperature;BMP_pressure;BME280_temperature;BME280_humidity;BME280_pressure;Samples;Min_cycle;Max_cycle;Signal;HPM_P1;HPM_P2
2022/04/18 00:01:38;;;;;;;3.80;1.45;;;19.80;69.80;;;;;;5050685;28;20032;-72
2022/04/18 00:04:04;;;;;;;4.65;0.93;;;19.90;69.60;;;;;;5051312;28;20024;-71
2022/04/18 00:06:35;;;;;;;5.53;1.08;;;19.90;69.40;;;;;;5050547;28;20068;-71
2022/04/18 00:09:03;;;;;;;5.60;1.67;;;19.90;69.30;;;;;;5050841;28;20048;-71
2022/04/18 00:11:29;;;;;;;7.90;1.88;;;19.90;69.30;;;;;;5049938;28;20033;-71
2022/04/18 00:13:56;;;;;;;8.57;2.13;;;19.90;69.40;;;;;;5049794;28;20067;-70
2022/04/18 00:16:23;;;;;;;7.90;1.60;;;19.90;69.50;;;;;;5050559;28;20025;-71
2022/04/18 00:18:50;;;;;;;7.75;1.73;;;19.80;69.70;;;;;;5050273;28;20017;-71
2022/04/18 00:21:16;;;;;;;11.27;2.45;;;19.90;69.90;;;;;;5051085;28;20032;-71
2022/04/18 00:23:43;;;;;;;19.23;2.40;;;19.90;70.20;;;;;;5049988;28;20037;-72
2022/04/18 00:26:11;;;;;;;6.97;2.45;;;19.90;70.60;;;;;;5050755;28;20479;-73
2022/04/18 00:28:37;;;;;;;9.48;2.20;;;19.80;70.60;;;;;;5049021;28;20028;-71
2022/04/18 00:31:04;;;;;;;6.63;1.58;;;19.80;70.70;;;;;;5050626;28;20480;-72
2022/04/18 00:33:31;;;;;;;7.90;1.80;;;19.80;70.70;;;;;;5049736;28;20021;-72
2022/04/18 00:35:58;;;;;;;10.10;2.70;;;19.80;70.70;;;;;;5050479;28;20044;-71
2022/04/18 00:38:24;;;;;;;6.95;1.80;;;19.80;70.70;;;;;;5050376;28;20028;-75
2022/04/18 00:40:51;;;;;;;15.65;2.45;;;19.80;70.70;;;;;;5049762;28;20021;-73
2022/04/18 00:43:17;;;;;;;6.78;2.15;;;19.80;70.60;;;;;;5050557;28;20029;-72
2022/04/18 00:45:44;;;;;;;8.63;2.15;;;19.80;70.80;;;;;;5049807;28;20020;-72
2022/04/18 00:48:10;;;;;;;5.18;2.40;;;19.80;70.70;;;;;;5051334;28;20029;-76
2022/04/18 00:50:38;;;;;;;6.28;2.20;;;19.80;70.60;;;;;;5047988;28;20033;-75
2022/04/18 00:53:06;;;;;;;5.35;1.27;;;19.70;70.40;;;;;;5050302;28;20028;-73
2022/04/18 00:55:34;;;;;;;9.35;2.42;;;19.70;70.30;;;;;;5048554;28;20021;-72
2022/04/18 00:58:02;;;;;;;13.52;2.33;;;19.70;70.30;;;;;;5049349;28;20091;-72
2022/04/18 01:00:28;;;;;;;2.95;1.65;;;19.70;70.00;;;;;;5049794;28;20056;-72
2022/04/18 01:02:55;;;;;;;5.20;2.17;;;19.70;69.60;;;;;;5049102;28;20127;-76
2022/04/18 01:05:21;;;;;;;6.18;1.85;;;19.60;69.20;;;;;;5050058;28;20021;-70
2022/04/18 01:07:48;;;;;;;3.78;1.75;;;19.60;69.10;;;;;;5048626;28;20464;-75
2022/04/18 01:10:14;;;;;;;6.38;1.55;;;19.60;69.30;;;;;;5050834;28;20365;-71
2022/04/18 01:12:42;;;;;;;5.38;1.58;;;19.60;69.20;;;;;;5048034;28;20033;-71
2022/04/18 01:15:09;;;;;;;4.53;2.58;;;19.60;69.30;;;;;;5049984;28;20063;-71
2022/04/18 01:17:36;;;;;;;5.65;1.38;;;19.60;69.30;;;;;;5049869;28;20456;-71
2022/04/18 01:20:03;;;;;;;9.43;2.47;;;19.50;69.20;;;;;;5048236;28;20480;-70
2022/04/18 01:22:32;;;;;;;8.30;1.73;;;19.50;69.40;;;;;;5049317;28;20037;-70
2022/04/18 01:30:28;;;;;;;5.57;1.60;;;19.50;69.70;;;;;;5049922;28;20048;-71
2022/04/18 01:32:55;;;;;;;8.48;2.80;;;19.50;69.80;;;;;;5047596;28;20480;-71
2022/04/18 01:35:21;;;;;;;6.90;1.80;;;19.50;70.00;;;;;;5048692;28;20031;-70
2022/04/18 01:37:48;;;;;;;8.23;1.98;;;19.50;70.00;;;;;;5048921;28;20075;-71
2022/04/18 01:40:14;;;;;;;11.32;2.72;;;19.50;70.10;;;;;;5049551;28;20021;-70
2022/04/18 01:42:41;;;;;;;7.93;1.98;;;19.50;70.30;;;;;;5047707;28;20120;-73
2022/04/18 01:45:08;;;;;;;6.85;1.60;;;19.40;70.50;;;;;;5049481;28;20543;-74
2022/04/18 01:47:35;;;;;;;7.50;1.70;;;19.40;70.50;;;;;;5048710;28;20021;-71
2022/04/18 01:50:01;;;;;;;7.70;2.67;;;19.40;70.50;;;;;;5048536;28;20036;-70
2022/04/18 01:52:28;;;;;;;9.85;2.50;;;19.40;70.50;;;;;;5047944;28;20056;-71
2022/04/18 01:54:54;;;;;;;8.82;1.90;;;19.40;70.60;;;;;;5048095;28;20103;-71
2022/04/18 01:57:21;;;;;;;5.68;1.83;;;19.40;70.60;;;;;;5049332;28;20017;-76
2022/04/18 01:59:47;;;;;;;5.65;1.63;;;19.40;70.70;;;;;;5047966;28;20103;-70
2022/04/18 02:02:14;;;;;;;5.28;1.83;;;19.40;70.70;;;;;;5046556;28;20032;-72
2022/04/18 02:04:40;;;;;;;7.43;2.28;;;19.30;70.60;;;;;;5047649;28;20017;-69
2022/04/18 02:07:09;;;;;;;11.07;1.48;;;19.30;70.60;;;;;;5048421;28;20369;-73
2022/04/18 02:09:38;;;;;;;9.45;1.85;;;19.30;70.50;;;;;;5049226;28;20029;-70
2022/04/18 02:12:06;;;;;;;5.90;1.70;;;19.30;70.50;;;;;;5048447;28;20036;-73
2022/04/18 02:14:32;;;;;;;8.70;2.40;;;19.30;70.30;;;;;;5048517;28;20586;-71
2022/04/18 02:16:59;;;;;;;9.07;2.08;;;19.30;70.30;;;;;;5045851;28;20159;-72
2022/04/18 02:19:25;;;;;;;9.05;2.08;;;19.30;70.30;;;;;;5049039;28;20017;-74
2022/04/18 02:21:52;;;;;;;7.68;1.90;;;19.20;70.10;;;;;;5045737;28;20389;-72
2022/04/18 02:24:18;;;;;;;5.90;2.90;;;19.20;70.00;;;;;;5048477;28;20029;-72
2022/04/18 02:26:45;;;;;;;10.63;2.35;;;19.20;69.80;;;;;;5045334;28;20028;-71
2022/04/18 02:29:11;;;;;;;5.03;1.83;;;19.20;69.80;;;;;;5047837;28;20017;-71
2022/04/18 02:32:47;;;;;;;5.40;2.35;;;19.20;69.80;;;;;;5049286;28;20083;-71
2022/04/18 02:34:24;;;;;;;5.35;1.88;;;19.10;69.70;;;;;;5051049;28;20047;-72
2022/04/18 02:36:51;;;;;;;5.35;1.63;;;19.10;69.60;;;;;;5052755;28;20029;-73
2022/04/18 02:39:17;;;;;;;7.88;1.40;;;19.10;69.50;;;;;;5052203;28;20917;-72
2022/04/18 02:41:44;;;;;;;6.93;1.67;;;19.10;69.20;;;;;;5052790;28;20030;-71
2022/04/18 02:44:10;;;;;;;4.82;1.40;;;19.10;69.00;;;;;;5052698;28;20017;-71
2022/04/18 02:46:37;;;;;;;5.88;1.85;;;19.10;68.90;;;;;;5051209;28;20159;-73
2022/04/18 02:49:03;;;;;;;4.05;1.70;;;19.10;68.70;;;;;;5052566;28;20029;-71
2022/04/18 02:51:30;;;;;;;8.02;2.00;;;19.00;68.50;;;;;;5051869;28;20033;-71
2022/04/18 02:53:58;;;;;;;5.50;2.00;;;19.10;68.60;;;;;;5052823;28;20025;-73
2022/04/18 02:56:25;;;;;;;6.55;2.65;;;19.10;68.50;;;;;;5051520;28;20112;-73
2022/04/18 02:58:51;;;;;;;6.28;2.42;;;19.00;68.50;;;;;;5052237;28;20078;-71
2022/04/18 03:01:18;;;;;;;6.82;2.33;;;19.00;68.50;;;;;;5051959;28;20033;-73
2022/04/18 03:03:44;;;;;;;9.98;2.45;;;19.00;68.50;;;;;;5050546;28;20021;-75
2022/04/18 03:06:11;;;;;;;5.38;1.83;;;19.00;68.60;;;;;;5052472;28;20079;-74
2022/04/18 03:08:37;;;;;;;5.35;1.80;;;19.00;68.70;;;;;;5051104;28;20391;-71
2022/04/18 03:11:05;;;;;;;6.93;2.20;;;19.00;68.80;;;;;;5051935;28;20500;-73
2022/04/18 03:13:34;;;;;;;8.48;2.30;;;19.00;68.90;;;;;;5051432;28;20052;-77
2022/04/18 03:16:01;;;;;;;5.95;1.95;;;19.00;69.20;;;;;;5052072;28;20707;-75
2022/04/18 03:18:28;;;;;;;7.35;2.10;;;19.00;69.70;;;;;;5052102;28;20104;-72
2022/04/18 03:20:54;;;;;;;7.40;1.50;;;19.00;70.10;;;;;;5051340;28;20480;-70
2022/04/18 03:23:21;;;;;;;9.48;2.25;;;19.00;70.50;;;;;;5050863;28;20044;-75
2022/04/18 03:25:47;;;;;;;7.90;3.13;;;18.90;70.70;;;;;;5051253;28;20051;-70
2022/04/18 03:28:14;;;;;;;5.15;2.33;;;18.90;71.00;;;;;;5051804;28;20029;-73
2022/04/18 03:30:41;;;;;;;4.97;2.15;;;18.90;71.20;;;;;;5050616;28;20471;-71
2022/04/18 03:33:08;;;;;;;11.27;2.13;;;18.90;71.50;;;;;;5051650;28;20489;-76
2022/04/18 03:35:34;;;;;;;10.70;3.17;;;18.90;71.80;;;;;;5051581;28;20024;-72
2022/04/18 03:40:46;;;;;;;13.93;2.42;;;18.80;71.90;;;;;;5051061;28;20072;-71
2022/04/18 03:43:12;;;;;;;10.57;2.28;;;18.80;72.10;;;;;;5049600;28;20047;-74
2022/04/18 03:45:39;;;;;;;9.32;2.63;;;18.90;72.30;;;;;;5051487;28;20055;-74
2022/04/18 03:48:05;;;;;;;8.60;2.75;;;18.80;72.30;;;;;;5050451;28;20075;-72
2022/04/18 03:50:32;;;;;;;13.32;2.75;;;18.80;72.40;;;;;;5051486;28;20182;-74
2022/04/18 03:52:58;;;;;;;11.57;2.60;;;18.80;72.30;;;;;;5047274;28;20029;-72
2022/04/18 03:55:25;;;;;;;9.57;2.90;;;18.90;72.40;;;;;;5050796;28;20040;-73
2022/04/18 03:57:52;;;;;;;7.15;2.00;;;18.80;72.40;;;;;;5051565;28;20025;-71
2022/04/18 04:00:19;;;;;;;9.30;2.70;;;18.80;72.40;;;;;;5050219;28;20107;-70
2022/04/18 04:02:45;;;;;;;9.57;2.10;;;18.80;72.50;;;;;;5049963;28;20533;-70
2022/04/18 04:05:12;;;;;;;19.83;12.50;;;18.80;72.60;;;;;;5048877;28;20494;-71
2022/04/18 04:07:39;;;;;;;22.55;13.45;;;18.80;72.70;;;;;;5051356;28;20440;-72
2022/04/18 04:10:06;;;;;;;18.63;9.68;;;18.80;72.70;;;;;;5050350;28;20025;-73
2022/04/18 04:12:32;;;;;;;12.20;5.05;;;18.70;72.60;;;;;;5050703;28;20063;-72
2022/04/18 04:14:59;;;;;;;12.27;3.65;;;18.70;72.50;;;;;;5050386;28;20040;-71
2022/04/18 04:17:26;;;;;;;4.60;2.30;;;18.70;72.50;;;;;;5050198;28;20025;-70
2022/04/18 04:19:53;;;;;;;10.85;2.67;;;18.70;72.50;;;;;;5051122;28;20013;-71
2022/04/18 04:22:19;;;;;;;6.55;1.95;;;18.70;72.50;;;;;;5049585;28;20063;-72
2022/04/18 04:24:46;;;;;;;5.00;2.95;;;18.70;72.30;;;;;;5049782;28;20033;-71
2022/04/18 04:27:12;;;;;;;10.60;1.92;;;18.70;72.10;;;;;;5048669;28;20021;-70
2022/04/18 04:29:38;;;;;;;7.72;1.67;;;18.70;71.80;;;;;;5050611;28;20167;-71
2022/04/18 04:32:05;;;;;;;8.25;2.53;;;18.70;71.60;;;;;;5050637;28;20041;-71
2022/04/18 04:34:32;;;;;;;6.82;2.15;;;18.70;71.60;;;;;;5049432;28;20027;-71
2022/04/18 04:36:58;;;;;;;5.57;1.98;;;18.60;71.40;;;;;;5048422;28;20021;-71
2022/04/18 04:39:25;;;;;;;7.25;2.55;;;18.60;71.40;;;;;;5049851;28;20013;-72
2022/04/18 04:41:51;;;;;;;15.15;2.20;;;18.60;71.60;;;;;;5050520;28;20036;-69
2022/04/18 04:44:18;;;;;;;11.07;3.13;;;18.70;73.00;;;;;;5049393;28;20033;-68
2022/04/18 04:46:45;;;;;;;11.52;2.65;;;18.60;72.60;;;;;;5050463;28;20028;-70
2022/04/18 04:49:12;;;;;;;23.77;15.38;;;18.60;73.40;;;;;;5049934;28;20021;-71
2022/04/18 04:51:39;;;;;;;39.28;26.67;;;18.60;74.00;;;;;;5050362;28;20033;-71
2022/04/18 04:54:06;;;;;;;25.85;18.00;;;18.60;73.70;;;;;;5049636;28;20495;-71
2022/04/18 04:56:32;;;;;;;12.70;8.10;;;18.60;73.30;;;;;;5046260;28;20463;-74
2022/04/18 04:58:58;;;;;;;10.43;4.82;;;18.60;72.90;;;;;;5049167;28;20017;-70
2022/04/18 05:01:25;;;;;;;13.10;4.60;;;18.60;72.40;;;;;;5048019;28;20436;-70
2022/04/18 05:03:52;;;;;;;10.20;4.07;;;18.60;72.10;;;;;;5049089;28;20036;-71
2022/04/18 05:06:19;;;;;;;7.32;2.90;;;18.60;71.90;;;;;;5047996;28;20491;-71
2022/04/18 05:08:45;;;;;;;8.35;2.47;;;18.50;71.70;;;;;;5048341;28;20032;-70
2022/04/18 05:11:12;;;;;;;9.95;2.55;;;18.60;71.70;;;;;;5049077;28;20028;-72
2022/04/18 05:13:38;;;;;;;7.03;2.80;;;18.50;71.30;;;;;;5047417;28;20094;-70
2022/04/18 05:16:05;;;;;;;5.95;2.47;;;18.50;71.20;;;;;;5048805;28;20104;-71
2022/04/18 05:18:32;;;;;;;11.80;2.53;;;18.50;71.20;;;;;;5046637;28;20028;-67
2022/04/18 05:20:58;;;;;;;24.00;2.72;;;18.50;71.00;;;;;;5049925;28;20013;-69
2022/04/18 05:23:25;;;;;;;10.15;2.80;;;18.50;71.20;;;;;;5046808;28;20559;-71
2022/04/18 05:25:51;;;;;;;14.85;7.00;;;18.50;71.10;;;;;;5049956;28;20036;-71
2022/04/18 05:28:18;;;;;;;24.33;15.98;;;18.40;70.90;;;;;;5049308;28;20036;-70
2022/04/18 05:30:44;;;;;;;15.75;11.02;;;18.40;71.00;;;;;;5049077;28;20055;-79
2022/04/18 05:33:11;;;;;;;12.88;6.55;;;18.40;71.20;;;;;;5045650;28;20080;-73
2022/04/18 05:35:37;;;;;;;11.13;4.20;;;18.40;71.80;;;;;;5048612;28;20021;-73
2022/04/18 05:38:04;;;;;;;10.02;3.45;;;18.40;72.20;;;;;;5049587;28;20036;-71
2022/04/18 05:40:31;;;;;;;6.85;2.45;;;18.40;72.50;;;;;;5048301;28;20111;-70
2022/04/18 05:42:58;;;;;;;21.83;2.90;;;18.40;72.80;;;;;;5049292;28;20024;-72
2022/04/18 05:45:25;;;;;;;9.88;3.67;;;18.40;73.10;;;;;;5048716;28;20025;-71
2022/04/18 05:47:51;;;;;;;9.57;2.72;;;18.40;73.40;;;;;;5048312;28;20025;-77
2022/04/18 05:50:19;;;;;;;16.33;2.63;;;18.40;73.60;;;;;;5049591;28;20479;-75
2022/04/18 05:52:47;;;;;;;6.28;2.25;;;18.50;74.40;;;;;;5047842;28;20193;-78
2022/04/18 05:55:14;;;;;;;21.50;9.32;;;18.40;74.90;;;;;;5048864;28;20025;-72
2022/04/18 05:57:40;;;;;;;20.30;11.98;;;18.50;75.80;;;;;;5047692;28;20052;-72
2022/04/18 06:00:07;;;;;;;16.52;7.28;;;18.50;75.30;;;;;;5048796;28;20033;-76
2022/04/18 06:02:33;;;;;;;16.35;5.85;;;18.50;75.40;;;;;;5046245;28;20111;-73
2022/04/18 06:05:00;;;;;;;6.80;3.03;;;18.50;75.60;;;;;;5048114;28;20029;-71
2022/04/18 06:07:26;;;;;;;10.20;3.05;;;18.50;75.50;;;;;;5048425;28;20031;-75
2022/04/18 06:09:53;;;;;;;10.85;2.42;;;18.50;75.40;;;;;;5041164;28;20021;-72
2022/04/18 06:12:20;;;;;;;8.57;2.85;;;18.50;75.20;;;;;;5048790;28;20048;-71
2022/04/18 06:14:47;;;;;;;3.97;1.92;;;18.50;75.20;;;;;;5046955;28;20029;-80
2022/04/18 06:17:14;;;;;;;13.55;3.30;;;18.50;75.20;;;;;;5048635;28;20369;-80
2022/04/18 06:19:40;;;;;;;12.43;2.90;;;18.50;75.20;;;;;;5048153;28;20036;-72
2022/04/18 06:22:07;;;;;;;16.02;2.95;;;18.50;75.20;;;;;;5043643;28;20611;-77
2022/04/18 06:24:33;;;;;;;13.38;3.25;;;18.50;75.50;;;;;;5047877;28;20017;-75
2022/04/18 06:27:00;;;;;;;20.58;6.32;;;18.50;75.80;;;;;;5047472;28;20033;-76
2022/04/18 06:29:27;;;;;;;26.27;14.48;;;18.50;75.90;;;;;;5048853;28;20064;-74
2022/04/18 06:31:53;;;;;;;20.83;10.82;;;18.50;75.80;;;;;;5046587;28;20036;-74
2022/04/18 06:34:21;;;;;;;12.95;6.30;;;18.50;76.00;;;;;;5047280;28;20381;-71
2022/04/18 06:36:47;;;;;;;10.73;4.72;;;18.50;76.20;;;;;;5045191;28;20033;-71
2022/04/18 06:39:14;;;;;;;16.80;4.72;;;18.60;76.90;;;;;;5047847;28;20025;-77
2022/04/18 06:41:41;;;;;;;12.70;3.25;;;18.60;76.10;;;;;;5046865;28;20013;-73
2022/04/18 06:44:07;;;;;;;8.48;2.72;;;18.60;75.90;;;;;;5047344;28;20025;-73
2022/04/18 06:46:34;;;;;;;14.30;3.78;;;18.60;75.50;;;;;;5044580;28;20037;-73
2022/04/18 06:49:00;;;;;;;9.07;2.80;;;18.60;75.30;;;;;;5045827;28;20013;-71
2022/04/18 06:51:27;;;;;;;7.43;2.28;;;18.60;75.20;;;;;;5047109;28;20086;-75
2022/04/18 06:53:53;;;;;;;10.10;2.70;;;18.70;75.10;;;;;;5047047;28;20087;-71
2022/04/18 06:59:04;;;;;;;13.07;2.77;;;18.70;75.00;;;;;;5048040;28;20112;-74
2022/04/18 07:01:31;;;;;;;8.32;2.60;;;18.70;74.90;;;;;;5046656;28;20281;-71
2022/04/18 07:03:57;;;;;;;7.65;2.38;;;18.80;74.80;;;;;;5048498;28;20524;-72
2022/04/18 07:06:24;;;;;;;8.68;2.38;;;18.80;74.70;;;;;;5047347;28;20028;-70
2022/04/18 07:08:50;;;;;;;5.32;1.90;;;18.80;74.60;;;;;;5048735;28;20029;-83
2022/04/18 07:11:17;;;;;;;9.10;3.08;;;18.90;74.30;;;;;;5046713;28;20028;-78
2022/04/18 07:13:43;;;;;;;6.43;2.38;;;18.90;74.00;;;;;;5048965;28;20031;-71
2022/04/18 07:16:09;;;;;;;13.40;7.60;;;18.90;73.80;;;;;;5046285;28;20021;-71
2022/04/18 07:18:37;;;;;;;17.90;9.77;;;18.90;73.40;;;;;;5049049;28;20035;-89
2022/04/18 07:21:04;;;;;;;11.98;7.75;;;19.00;73.00;;;;;;5049986;28;20036;-72
2022/04/18 07:23:30;;;;;;;19.85;7.00;;;19.00;72.60;;;;;;5050129;28;20025;-79
2022/04/18 07:25:57;;;;;;;6.80;4.30;;;19.00;72.30;;;;;;5050710;28;20541;-77
2022/04/18 07:28:24;;;;;;;7.47;2.85;;;19.10;72.10;;;;;;5050252;28;20025;-71
2022/04/18 07:30:50;;;;;;;9.77;2.83;;;19.10;72.00;;;;;;5052005;28;20491;-76
2022/04/18 07:33:17;;;;;;;9.75;3.55;;;19.10;72.00;;;;;;5051159;28;20028;-74
2022/04/18 07:35:43;;;;;;;8.20;2.13;;;19.10;72.10;;;;;;5051171;28;20029;-78
2022/04/18 07:40:55;;;;;;;24.15;8.55;;;19.20;72.20;;;;;;5051243;28;20035;-72
2022/04/18 07:43:24;;;;;;;21.00;6.20;;;19.30;72.40;;;;;;5042179;28;20073;-79
2022/04/18 07:45:50;;;;;;;12.52;4.43;;;19.30;72.20;;;;;;5049532;28;20053;-74
2022/04/18 07:48:17;;;;;;;11.48;3.30;;;19.30;72.10;;;;;;5051658;28;20100;-77
2022/04/18 07:53:28;;;;;;;12.60;3.63;;;19.40;71.80;;;;;;5049224;28;20048;-70
2022/04/18 07:55:55;;;;;;;5.28;3.30;;;19.40;71.60;;;;;;5051951;28;20472;-79
2022/04/18 07:58:21;;;;;;;8.90;3.25;;;19.50;71.70;;;;;;5050197;28;20049;-78
2022/04/18 08:00:48;;;;;;;7.85;3.08;;;19.50;71.50;;;;;;5051832;28;20539;-77
2022/04/18 08:03:16;;;;;;;14.73;3.40;;;19.50;71.20;;;;;;5049689;28;20488;-76
2022/04/18 08:05:43;;;;;;;10.30;4.82;;;19.60;71.10;;;;;;5051586;28;20021;-72
2022/04/18 08:08:09;;;;;;;6.13;3.80;;;19.70;71.10;;;;;;5049596;28;20511;-86
2022/04/18 08:10:38;;;;;;;15.30;3.70;;;19.70;71.00;;;;;;5051689;28;20056;-79
2022/04/18 08:13:05;;;;;;;9.90;4.28;;;19.70;70.80;;;;;;5048107;28;20542;-73
2022/04/18 08:15:33;;;;;;;5.15;3.13;;;19.80;70.70;;;;;;5050063;28;20017;-78
2022/04/18 08:17:59;;;;;;;6.38;3.15;;;19.80;70.40;;;;;;5051259;28;20029;-78
2022/04/18 08:20:26;;;;;;;9.18;2.53;;;19.90;70.00;;;;;;5049836;28;20021;-77
2022/04/18 08:22:53;;;;;;;10.93;2.92;;;19.90;69.50;;;;;;5050393;28;20124;-74
2022/04/18 08:25:19;;;;;;;4.40;2.38;;;19.90;69.30;;;;;;5049715;28;20021;-74
2022/04/18 08:27:46;;;;;;;5.82;2.80;;;20.00;69.10;;;;;;5050178;28;20021;-73
2022/04/18 08:30:12;;;;;;;14.32;3.00;;;20.00;69.00;;;;;;5046873;28;20074;-71
2022/04/18 08:32:40;;;;;;;8.55;2.88;;;20.10;68.80;;;;;;5049978;28;20040;-78
2022/04/18 08:35:08;;;;;;;8.30;2.20;;;20.10;68.70;;;;;;5050531;28;20028;-84
2022/04/18 08:37:36;;;;;;;5.85;2.40;;;20.20;68.50;;;;;;5046969;28;20056;-79
2022/04/18 08:40:08;;;;;;;4.70;1.80;;;20.20;68.10;;;;;;5050084;28;20323;-72
2022/04/18 08:42:37;;;;;;;6.93;2.35;;;20.30;68.00;;;;;;5047810;28;20025;-72
2022/04/18 08:45:13;;;;;;;8.00;2.40;;;20.30;67.20;;;;;;5050243;28;21252;-72
2022/04/18 08:53:16;;;;;;;17.98;1.98;;;20.40;65.20;;;;;;5047749;28;20056;-74
2022/04/18 08:55:42;;;;;;;14.35;1.65;;;20.50;64.60;;;;;;5048745;28;20029;-75
2022/04/18 08:58:14;;;;;;;7.70;2.25;;;20.50;64.40;;;;;;5050285;28;20051;-74
2022/04/18 09:00:41;;;;;;;8.30;1.85;;;20.60;64.00;;;;;;5049366;28;20126;-73
2022/04/18 09:03:07;;;;;;;4.30;1.50;;;20.70;64.20;;;;;;5049801;28;20058;-72
2022/04/18 09:05:38;;;;;;;5.78;1.52;;;20.80;64.30;;;;;;5050265;28;20056;-72
2022/04/18 09:08:10;;;;;;;6.47;1.60;;;20.80;64.40;;;;;;5048835;28;20096;-73
2022/04/18 09:10:38;;;;;;;6.90;1.65;;;20.90;64.60;;;;;;5050026;28;20035;-75
2022/04/18 09:13:07;;;;;;;15.77;1.98;;;20.90;64.40;;;;;;5047507;28;20415;-73
2022/04/18 09:15:48;;;;;;;13.88;1.63;;;21.00;64.00;;;;;;5050638;28;20079;-74
2022/04/18 09:18:17;;;;;;;8.35;1.73;;;21.10;64.00;;;;;;5049947;28;20456;-74
2022/04/18 09:20:50;;;;;;;8.48;1.77;;;21.10;63.40;;;;;;5049006;28;20395;-72
2022/04/18 09:23:28;;;;;;;9.32;1.63;;;21.10;62.90;;;;;;5049878;28;20434;-74
2022/04/18 09:26:09;;;;;;;5.28;1.20;;;21.20;63.00;;;;;;5047628;28;20475;-75
2022/04/18 09:28:42;;;;;;;7.47;1.55;;;21.30;62.80;;;;;;5049737;28;20021;-74
2022/04/18 09:31:10;;;;;;;4.22;1.58;;;21.30;62.80;;;;;;5049431;28;20108;-74
2022/04/18 09:33:56;;;;;;;3.00;0.95;;;21.40;62.40;;;;;;5047622;28;20034;-75
2022/04/18 09:36:24;;;;;;;5.75;1.15;;;21.40;61.30;;;;;;5049903;28;20640;-73
2022/04/18 09:38:52;;;;;;;6.50;1.50;;;21.50;60.50;;;;;;5048471;28;20108;-74
2022/04/18 09:41:37;;;;;;;2.72;0.75;;;21.50;59.70;;;;;;5049095;28;20021;-73
2022/04/18 09:44:04;;;;;;;6.20;1.23;;;21.60;59.50;;;;;;5046366;28;20086;-74
2022/04/18 09:46:31;;;;;;;3.55;1.23;;;21.60;59.40;;;;;;5047434;28;20024;-73
2022/04/18 09:49:04;;;;;;;5.93;1.17;;;21.60;59.40;;;;;;5050108;28;20067;-74
2022/04/18 09:51:34;;;;;;;5.55;1.70;;;21.70;59.70;;;;;;5048181;28;20135;-75
2022/04/18 09:54:00;;;;;;;4.10;1.13;;;21.70;59.20;;;;;;5046529;28;20055;-74
2022/04/18 09:56:27;;;;;;;3.97;1.20;;;21.70;59.80;;;;;;5048623;28;20424;-73
2022/04/18 09:58:55;;;;;;;5.85;1.52;;;21.80;59.10;;;;;;5049299;28;20021;-73
2022/04/18 10:01:22;;;;;;;11.15;1.50;;;21.90;59.40;;;;;;5046591;28;20025;-73
2022/04/18 10:03:52;;;;;;;16.08;2.53;;;21.90;59.30;;;;;;5047703;28;20468;-77
2022/04/18 10:06:20;;;;;;;8.73;1.67;;;22.00;59.20;;;;;;5049217;28;20032;-76
2022/04/18 10:08:47;;;;;;;3.88;1.70;;;22.00;59.10;;;;;;5047416;28;20139;-73
2022/04/18 10:11:13;;;;;;;7.60;1.83;;;22.10;59.30;;;;;;5045107;28;20086;-75
2022/04/18 10:13:41;;;;;;;84.10;69.15;;;22.10;59.40;;;;;;5047206;28;20064;-74
2022/04/18 10:16:07;;;;;;;57.10;48.45;;;22.20;59.10;;;;;;5049019;28;20022;-74
2022/04/18 10:18:50;;;;;;;31.17;27.08;;;22.30;58.90;;;;;;5047815;28;20025;-72
2022/04/18 10:21:26;;;;;;;24.20;13.50;;;22.30;59.00;;;;;;5047483;28;20025;-74
2022/04/18 10:24:17;;;;;;;21.08;10.18;;;22.40;59.40;;;;;;5045586;28;20033;-72
2022/04/18 10:27:02;;;;;;;19.80;10.20;;;22.40;59.50;;;;;;5045258;28;20074;-75
2022/04/18 10:29:44;;;;;;;9.77;6.93;;;22.40;59.80;;;;;;5049275;28;20020;-72
2022/04/18 10:32:13;;;;;;;8.00;4.30;;;22.50;59.90;;;;;;5047855;28;20063;-71
2022/04/18 10:34:39;;;;;;;6.97;3.50;;;22.50;59.90;;;;;;5047473;28;20323;-73
2022/04/18 10:37:06;;;;;;;11.43;7.40;;;22.60;59.70;;;;;;5049343;28;20023;-76
2022/04/18 10:39:38;;;;;;;8.80;6.60;;;22.60;59.70;;;;;;5047706;28;20392;-76
2022/04/18 10:42:27;;;;;;;11.52;6.80;;;22.70;59.30;;;;;;5048060;28;20024;-72
2022/04/18 10:45:10;;;;;;;10.57;3.90;;;22.70;59.00;;;;;;5045739;28;20033;-72
2022/04/18 10:47:58;;;;;;;15.57;10.75;;;22.70;58.70;;;;;;5045227;28;20104;-73
2022/04/18 10:50:35;;;;;;;8.48;4.70;;;22.80;59.10;;;;;;5047376;28;20025;-72
2022/04/18 10:53:12;;;;;;;7.00;3.80;;;22.90;59.10;;;;;;5046751;28;20056;-74
2022/04/18 10:55:59;;;;;;;10.63;4.47;;;22.90;59.40;;;;;;5050921;28;20036;-73
2022/04/18 10:58:29;;;;;;;12.10;4.55;;;23.00;59.20;;;;;;5040684;28;20091;-72
2022/04/18 11:01:00;;;;;;;4.65;2.95;;;23.10;58.30;;;;;;5049652;28;20025;-73
2022/04/18 11:03:49;;;;;;;8.05;3.60;;;23.10;58.10;;;;;;5050843;28;20024;-73
2022/04/18 11:06:21;;;;;;;10.32;5.03;;;23.20;58.30;;;;;;5046754;28;20021;-74
2022/04/18 11:09:02;;;;;;;9.98;6.28;;;23.20;57.70;;;;;;5050667;28;20434;-73
2022/04/18 11:11:47;;;;;;;15.98;11.15;;;23.30;57.60;;;;;;5050029;28;20033;-75
2022/04/18 11:14:24;;;;;;;;;;;23.30;57.60;;;;;;5049156;28;20021;-74
2022/04/18 11:17:01;;;;;;;15.00;10.30;;;23.40;57.50;;;;;;5050909;28;19995;-74
2022/04/18 11:19:30;;;;;;;10.38;7.15;;;23.50;57.40;;;;;;5051427;28;20021;-73
2022/04/18 11:21:58;;;;;;;6.90;5.57;;;23.50;57.00;;;;;;5049619;28;20025;-73
2022/04/18 11:24:42;;;;;;;29.58;20.52;;;23.50;56.90;;;;;;5048732;28;20021;-74
2022/04/18 11:27:12;;;;;;;20.50;13.93;;;23.60;56.70;;;;;;5046676;28;20024;-75
2022/04/18 11:29:41;;;;;;;52.10;39.90;;;23.60;56.20;;;;;;5051311;28;20029;-74
2022/04/18 11:32:08;;;;;;;23.80;16.00;;;23.70;55.80;;;;;;5048563;28;20040;-75
2022/04/18 11:34:42;;;;;;;12.38;9.20;;;23.70;55.90;;;;;;5050882;28;20021;-75
2022/04/18 11:37:10;;;;;;;12.10;7.30;;;23.70;55.70;;;;;;5050988;28;20120;-76
2022/04/18 11:39:45;;;;;;;29.58;21.77;;;23.70;55.70;;;;;;5049414;28;20029;-72
2022/04/18 11:42:17;;;;;;;35.45;17.23;;;23.80;55.80;;;;;;5051398;28;20461;-73
2022/04/18 11:44:44;;;;;;;41.40;31.13;;;23.90;56.00;;;;;;5049538;28;20036;-74
2022/04/18 11:47:13;;;;;;;27.38;21.00;;;23.90;55.60;;;;;;5051111;28;20025;-77
2022/04/18 11:49:41;;;;;;;20.60;15.00;;;24.00;54.70;;;;;;5050474;28;20040;-75
2022/04/18 11:52:24;;;;;;;15.38;9.90;;;24.00;53.80;;;;;;5050129;28;20515;-73
2022/04/18 11:55:20;;;;;;;13.30;8.98;;;24.10;53.70;;;;;;5050920;28;20025;-75
2022/04/18 11:57:47;;;;;;;;;;;24.10;53.30;;;;;;5047618;28;20051;-74
2022/04/18 12:08:47;;;;;;;5.15;2.50;;;24.30;54.40;;;;;;5048242;28;20069;-73
2022/04/18 12:11:14;;;;;;;5.38;2.40;;;24.40;54.40;;;;;;5048899;28;20613;-73
2022/04/18 12:13:45;;;;;;;7.18;2.30;;;24.40;54.30;;;;;;5050369;28;20032;-73
2022/04/18 12:16:16;;;;;;;2.63;1.17;;;24.40;54.10;;;;;;5048511;28;20029;-74
2022/04/18 12:18:42;;;;;;;7.70;1.70;;;24.50;52.90;;;;;;5048650;28;20476;-72
2022/04/18 12:21:15;;;;;;;4.15;1.38;;;24.50;51.30;;;;;;5050086;28;20013;-72
2022/04/18 12:23:41;;;;;;;7.45;1.70;;;24.50;51.30;;;;;;5049631;28;20024;-69
2022/04/18 12:26:12;;;;;;;4.43;1.67;;;24.50;51.50;;;;;;5050665;28;20112;-72
2022/04/18 12:28:39;;;;;;;10.65;2.33;;;24.60;52.30;;;;;;5048730;28;20025;-71
2022/04/18 12:31:10;;;;;;;10.18;2.33;;;24.60;53.30;;;;;;5049135;28;20039;-71
2022/04/18 12:33:47;;;;;;;5.65;1.52;;;24.60;53.70;;;;;;5049260;28;20546;-72
2022/04/18 12:36:23;;;;;;;14.55;5.70;;;24.70;53.70;;;;;;5047493;28;20025;-71
2022/04/18 12:38:50;;;;;;;11.32;3.70;;;24.70;53.30;;;;;;5050292;28;20078;-72
2022/04/18 12:41:27;;;;;;;9.27;3.13;;;24.70;53.20;;;;;;5048762;28;20026;-72
2022/04/18 12:43:54;;;;;;;7.57;2.20;;;24.70;53.40;;;;;;5050362;28;20100;-73
2022/04/18 12:46:31;;;;;;;15.73;3.72;;;24.70;53.70;;;;;;5049754;28;20009;-74
2022/04/18 12:49:03;;;;;;;7.55;3.05;;;24.70;53.50;;;;;;5046313;28;20538;-73
2022/04/18 12:51:38;;;;;;;10.13;2.17;;;24.80;54.00;;;;;;5048011;28;20120;-71
2022/04/18 12:54:17;;;;;;;15.45;3.30;;;24.70;54.10;;;;;;5048658;28;20032;-72
2022/04/18 12:56:48;;;;;;;6.07;3.30;;;24.80;54.30;;;;;;5049267;28;20029;-70
2022/04/18 12:59:26;;;;;;;10.30;3.67;;;24.80;54.70;;;;;;5049572;28;20025;-73
2022/04/18 13:02:06;;;;;;;15.07;8.63;;;24.90;54.60;;;;;;5047109;28;20112;-71
2022/04/18 13:04:32;;;;;;;12.57;6.25;;;24.90;54.40;;;;;;5049280;28;20537;-72
2022/04/18 13:07:04;;;;;;;15.98;6.07;;;24.80;54.30;;;;;;5047860;28;20029;-72
2022/04/18 13:09:32;;;;;;;6.53;4.32;;;24.80;54.40;;;;;;5048823;28;20017;-72
2022/04/18 13:12:06;;;;;;;10.68;4.90;;;24.80;54.80;;;;;;5044383;28;20505;-71
2022/04/18 13:14:34;;;;;;;;;;;24.80;55.20;;;;;;5049911;28;20038;-70
2022/04/18 13:17:11;;;;;;;7.82;4.55;;;24.70;55.40;;;;;;5048568;28;19954;-72
2022/04/18 13:19:40;;;;;;;10.20;5.03;;;24.70;55.40;;;;;;5047564;28;20029;-73
2022/04/18 13:22:07;;;;;;;17.70;4.05;;;24.70;55.40;;;;;;5048435;28;20071;-71